createdAt,value
2022-09-27T00:01:31.702Z,119.00
2022-09-27T00:04:09.679Z,119.30
2022-09-27T00:07:07.429Z,117.90
2022-09-27T00:09:39.949Z,103.20
2022-09-27T00:12:14.914Z,97.70
2022-09-27T00:15:12.408Z,95.10
2022-09-27T00:18:07.084Z,91.30
2022-09-27T00:20:40.259Z,83.80
2022-09-27T00:23:11.280Z,78.80
2022-09-27T00:25:43.367Z,79.30
2022-09-27T00:28:44.028Z,91.20
2022-09-27T00:31:55.692Z,81.30
2022-09-27T00:34:28.009Z,73.90
2022-09-27T00:40:50.876Z,79.50
2022-09-27T00:43:27.599Z,67.70
2022-09-27T00:46:28.529Z,74.70
2022-09-27T00:49:07.753Z,77.80
2022-09-27T00:52:04.806Z,68.20
2022-09-27T00:55:25.293Z,81.90
2022-09-27T00:57:59.325Z,81.30
2022-09-27T01:00:30.483Z,71.60
2022-09-27T01:03:04.647Z,61.20
2022-09-27T01:08:40.715Z,74.30
2022-09-27T01:11:30.018Z,80.50
2022-09-27T01:17:54.661Z,69.90
2022-09-27T01:21:23.794Z,76.10
2022-09-27T01:25:05.081Z,66.00
2022-09-27T01:28:06.614Z,67.10
2022-09-27T01:30:48.563Z,67.80
2022-09-27T01:33:32.044Z,56.60
2022-09-27T01:36:28.329Z,65.40
2022-09-27T01:39:18.978Z,61.90
2022-09-27T01:42:22.862Z,66.00
2022-09-27T01:45:05.607Z,74.40
2022-09-27T01:47:52.927Z,69.30
2022-09-27T01:51:14.881Z,52.50
2022-09-27T01:54:20.825Z,50.90
2022-09-27T01:57:44.018Z,52.00
2022-09-27T02:00:22.225Z,52.20
2022-09-27T02:03:23.324Z,49.10
2022-09-27T02:06:06.652Z,60.10
2022-09-27T02:13:05.412Z,54.60
2022-09-27T02:15:44.436Z,61.30
2022-09-27T02:18:22.506Z,54.90
2022-09-27T02:21:23.852Z,59.80
2022-09-27T02:24:26.476Z,52.60
2022-09-27T02:27:04.647Z,71.20
2022-09-27T02:30:32.238Z,54.60
2022-09-27T02:33:30.524Z,68.70
2022-09-27T02:36:26.015Z,67.90
2022-09-27T02:39:23.724Z,65.30
2022-09-27T02:45:27.217Z,51.60
2022-09-27T02:48:08.610Z,60.60
2022-09-27T02:51:31.408Z,48.80
2022-09-27T02:54:30.017Z,46.50
2022-09-27T03:00:23.319Z,63.30
2022-09-27T03:02:59.515Z,52.40
2022-09-27T03:05:38.651Z,67.40
2022-09-27T03:08:10.377Z,49.50
2022-09-27T03:10:41.656Z,48.40
2022-09-27T03:13:11.428Z,46.80
2022-09-27T03:15:46.174Z,42.40
2022-09-27T03:18:21.952Z,52.20
2022-09-27T03:21:02.072Z,40.30
2022-09-27T03:23:43.900Z,54.40
2022-09-27T03:26:22.664Z,44.90
2022-09-27T03:28:55.387Z,56.00
2022-09-27T03:31:27.739Z,41.50
2022-09-27T03:34:04.722Z,45.70
2022-09-27T03:36:43.167Z,37.70
2022-09-27T03:39:16.997Z,40.00
2022-09-27T03:41:51.055Z,38.50
2022-09-27T03:44:45.798Z,36.70
2022-09-27T03:47:43.537Z,42.00
2022-09-27T03:50:17.886Z,42.10
2022-09-27T04:00:10.140Z,48.70
2022-09-27T04:02:48.483Z,51.70
2022-09-27T04:05:20.019Z,43.70
2022-09-27T04:08:40.132Z,46.80
2022-09-27T04:11:41.138Z,53.20
2022-09-27T04:15:29.921Z,50.90
2022-09-27T04:18:05.122Z,47.20
2022-09-27T04:20:40.045Z,52.40
2022-09-27T04:24:00.281Z,55.40
2022-09-27T04:30:20.751Z,53.70
2022-09-27T04:32:58.058Z,50.20
2022-09-27T04:39:43.695Z,53.50
2022-09-27T04:42:14.718Z,53.70
2022-09-27T04:45:34.740Z,50.10
2022-09-27T04:48:29.827Z,51.00
2022-09-27T04:54:32.491Z,40.00
2022-09-27T04:57:51.181Z,42.30
2022-09-27T05:01:11.452Z,38.30
2022-09-27T05:04:32.095Z,38.40
2022-09-27T05:07:54.190Z,52.90
2022-09-27T05:10:26.981Z,57.90
2022-09-27T05:13:25.321Z,53.20
2022-09-27T05:19:48.177Z,55.80
2022-09-27T05:22:22.975Z,49.80
2022-09-27T05:25:17.544Z,52.20
2022-09-27T05:27:52.021Z,52.00
2022-09-27T05:30:30.719Z,51.30
2022-09-27T05:33:05.894Z,50.80
2022-09-27T05:39:08.788Z,55.60
2022-09-27T05:45:32.543Z,43.50
2022-09-27T05:48:06.957Z,41.70
2022-09-27T05:50:41.882Z,43.20
2022-09-27T05:53:18.868Z,43.00
2022-09-27T05:56:41.099Z,39.90
2022-09-27T05:59:36.112Z,41.70
2022-09-27T06:02:07.492Z,42.40
2022-09-27T06:05:05.813Z,37.20
2022-09-27T06:07:35.631Z,37.30
2022-09-27T06:10:06.871Z,39.90
2022-09-27T06:12:37.777Z,37.00
2022-09-27T06:15:10.376Z,39.60
2022-09-27T06:17:39.429Z,38.80
2022-09-27T06:20:11.121Z,36.30
2022-09-27T06:22:40.979Z,32.60
2022-09-27T06:25:10.748Z,34.80
2022-09-27T06:27:40.220Z,36.30
2022-09-27T06:30:13.214Z,32.60
2022-09-27T06:32:44.576Z,34.00
2022-09-27T06:35:15.011Z,32.70
2022-09-27T06:37:44.778Z,31.70
2022-09-27T06:40:14.184Z,34.30
2022-09-27T06:42:43.779Z,37.90
2022-09-27T06:45:13.411Z,39.00
2022-09-27T06:47:44.130Z,31.80
2022-09-27T06:50:19.524Z,31.50
2022-09-27T06:52:58.220Z,28.60
2022-09-27T06:55:33.314Z,31.70
2022-09-27T06:58:22.605Z,31.10
2022-09-27T07:00:55.737Z,36.00
2022-09-27T07:03:40.991Z,33.00
2022-09-27T07:06:24.508Z,29.20
2022-09-27T07:08:58.025Z,29.70
2022-09-27T07:11:32.785Z,27.50
2022-09-27T07:14:09.657Z,23.20
2022-09-27T07:16:38.456Z,21.60
2022-09-27T07:19:14.135Z,24.30
2022-09-27T07:22:56.548Z,23.70
2022-09-27T07:25:33.176Z,27.00
2022-09-27T07:28:31.193Z,31.00
2022-09-27T07:31:04.451Z,28.80
2022-09-27T07:33:43.765Z,31.90
2022-09-27T07:36:17.779Z,33.00
2022-09-27T07:38:52.320Z,32.10
2022-09-27T07:41:48.737Z,33.10
2022-09-27T07:48:11.687Z,30.40
2022-09-27T07:51:11.555Z,30.00
2022-09-27T07:53:46.794Z,29.80
2022-09-27T07:57:30.286Z,26.20
2022-09-27T08:00:02.609Z,24.10
2022-09-27T08:02:59.454Z,24.20
2022-09-27T08:05:33.695Z,23.40
2022-09-27T08:08:05.571Z,20.80
2022-09-27T08:10:39.512Z,20.40
2022-09-27T08:13:35.880Z,22.40
2022-09-27T08:16:57.339Z,20.50
2022-09-27T08:19:30.076Z,21.50
2022-09-27T08:22:03.485Z,21.90
2022-09-27T08:25:04.769Z,22.20
2022-09-27T08:27:38.057Z,19.10
2022-09-27T08:30:25.508Z,17.00
2022-09-27T08:33:07.468Z,14.30
2022-09-27T08:35:39.885Z,16.10
2022-09-27T08:38:14.785Z,13.90
2022-09-27T08:42:02.799Z,12.20
2022-09-27T08:45:07.757Z,19.40
2022-09-27T08:47:45.940Z,15.10
2022-09-27T08:50:39.710Z,12.50
2022-09-27T08:53:50.253Z,10.40
2022-09-27T08:56:46.213Z,10.20
2022-09-27T09:03:06.421Z,7.40
2022-09-27T09:06:06.490Z,9.30
2022-09-27T09:09:11.608Z,5.90
2022-09-27T09:16:03.653Z,8.30
2022-09-27T09:19:27.588Z,8.90
2022-09-27T09:25:45.149Z,6.70
2022-09-27T09:28:44.283Z,5.60
2022-09-27T09:31:26.320Z,6.80
2022-09-27T09:37:17.710Z,5.70
2022-09-27T09:39:53.731Z,5.80
2022-09-27T09:42:49.391Z,6.50
2022-09-27T09:45:27.559Z,6.70
2022-09-27T09:48:05.729Z,5.10
2022-09-27T09:50:43.741Z,4.60
2022-09-27T09:53:43.612Z,5.30
2022-09-27T09:56:23.170Z,4.60
2022-09-27T09:59:21.030Z,4.70
2022-09-27T10:02:31.286Z,4.90
2022-09-27T10:05:26.934Z,4.10
2022-09-27T10:08:25.422Z,3.90
2022-09-27T10:11:23.487Z,3.80
2022-09-27T10:17:43.363Z,4.50
2022-09-27T10:20:47.051Z,5.20
2022-09-27T10:23:30.253Z,3.80
2022-09-27T10:26:04.347Z,4.80
2022-09-27T10:28:41.538Z,4.10
2022-09-27T10:31:42.662Z,4.00
2022-09-27T10:34:20.285Z,3.80
2022-09-27T10:37:03.634Z,4.70
2022-09-27T10:39:33.492Z,4.10
2022-09-27T10:42:04.057Z,5.30
2022-09-27T10:44:33.496Z,5.90
2022-09-27T10:47:09.555Z,5.70
2022-09-27T10:49:40.264Z,5.40
2022-09-27T10:52:15.511Z,4.80
2022-09-27T10:54:54.088Z,5.60
2022-09-27T10:57:28.265Z,6.00
2022-09-27T11:00:00.737Z,4.60
2022-09-27T11:02:34.511Z,4.60
2022-09-27T11:05:15.240Z,4.90
2022-09-27T11:07:55.553Z,7.60
2022-09-27T11:10:28.435Z,7.10
2022-09-27T11:13:14.030Z,4.00
2022-09-27T11:16:07.836Z,4.60
2022-09-27T11:18:44.324Z,7.00
2022-09-27T11:21:20.903Z,5.90
2022-09-27T11:23:59.942Z,6.10
2022-09-27T11:26:39.846Z,7.20
2022-09-27T11:29:20.733Z,4.30
2022-09-27T11:32:05.867Z,4.30
2022-09-27T11:35:00.939Z,5.80
2022-09-27T11:37:58.194Z,6.20
2022-09-27T11:41:03.418Z,4.80
2022-09-27T11:44:17.502Z,5.10
2022-09-27T11:46:57.172Z,4.90
2022-09-27T11:49:49.666Z,6.50
2022-09-27T11:52:42.867Z,5.50
2022-09-27T11:55:34.014Z,4.30
2022-09-27T11:58:55.586Z,4.70
2022-09-27T12:02:14.635Z,4.20
2022-09-27T12:17:50.646Z,6.10
2022-09-27T12:21:10.898Z,6.50
2022-09-27T12:28:00.053Z,4.90
2022-09-27T12:30:40.073Z,4.90
2022-09-27T12:33:22.850Z,4.70
2022-09-27T12:40:33.915Z,12.30
2022-09-27T12:43:13.809Z,16.00
2022-09-27T12:46:36.883Z,12.90
2022-09-27T12:52:56.341Z,5.80
2022-09-27T12:55:45.256Z,7.00
2022-09-27T12:59:03.455Z,7.40
2022-09-27T13:06:24.852Z,12.60
2022-09-27T13:09:43.261Z,9.40
2022-09-27T13:13:04.680Z,15.60
2022-09-27T13:15:42.787Z,12.10
2022-09-27T13:18:54.105Z,9.20
2022-09-27T13:22:12.191Z,7.10
2022-09-27T13:31:15.331Z,5.00
2022-09-27T13:34:44.636Z,7.40
2022-09-27T13:38:06.393Z,11.00
2022-09-27T13:45:01.786Z,13.20
2022-09-27T13:48:39.495Z,10.30
2022-09-27T13:51:39.275Z,12.30
2022-09-27T13:55:27.456Z,11.00
2022-09-27T13:58:07.066Z,13.50
2022-09-27T14:00:44.390Z,21.90
2022-09-27T14:03:23.367Z,24.90
2022-09-27T14:06:21.423Z,24.60
2022-09-27T14:15:30.925Z,20.60
2022-09-27T14:18:06.063Z,17.40
2022-09-27T14:20:45.551Z,16.40
2022-09-27T14:23:23.608Z,16.00
2022-09-27T14:26:45.378Z,15.90
2022-09-27T14:30:29.897Z,15.40
2022-09-27T14:33:54.423Z,16.70
2022-09-27T14:37:07.917Z,18.20
2022-09-27T14:40:51.187Z,33.00
2022-09-27T14:43:46.269Z,22.80
2022-09-27T14:50:35.096Z,11.80
2022-09-27T15:00:44.783Z,8.10
2022-09-27T15:07:15.021Z,8.60
2022-09-27T15:13:24.702Z,9.30
2022-09-27T15:16:24.227Z,7.60
2022-09-27T15:19:48.802Z,9.40
2022-09-27T15:22:52.675Z,9.70
2022-09-27T15:25:34.806Z,10.70
2022-09-27T15:28:09.166Z,10.00
2022-09-27T15:31:08.130Z,12.80
2022-09-27T15:34:16.671Z,13.40
2022-09-27T15:37:23.765Z,11.50
2022-09-27T15:40:31.980Z,14.70
2022-09-27T15:43:04.284Z,17.80
2022-09-27T15:45:35.955Z,15.70
2022-09-27T15:51:44.001Z,12.70
2022-09-27T15:54:14.446Z,18.90
2022-09-27T15:56:43.846Z,21.10
2022-09-27T15:59:21.556Z,14.50
2022-09-27T16:01:52.328Z,16.00
2022-09-27T16:04:21.467Z,15.90
2022-09-27T16:06:50.552Z,17.30
2022-09-27T16:09:20.591Z,24.30
2022-09-27T16:11:51.071Z,26.50
2022-09-27T16:14:19.749Z,24.40
2022-09-27T16:16:52.722Z,81.90
2022-09-27T16:19:22.025Z,54.00
2022-09-27T16:21:53.149Z,36.60
2022-09-27T16:24:26.282Z,38.00
2022-09-27T16:26:56.836Z,49.00
2022-09-27T16:29:25.541Z,40.30
2022-09-27T16:31:54.099Z,33.20
2022-09-27T16:34:24.610Z,30.20
2022-09-27T16:36:53.476Z,38.30
2022-09-27T16:39:24.975Z,36.30
2022-09-27T16:41:54.682Z,66.20
2022-09-27T16:44:25.228Z,45.80
2022-09-27T16:46:54.918Z,53.50
2022-09-27T16:49:43.352Z,36.40
2022-09-27T16:52:13.036Z,36.10
2022-09-27T16:54:43.627Z,39.00
2022-09-27T16:57:15.723Z,42.90
2022-09-27T16:59:48.736Z,43.90
2022-09-27T17:02:18.650Z,45.30
2022-09-27T17:04:47.990Z,47.60
2022-09-27T17:07:18.635Z,52.30
2022-09-27T17:09:48.144Z,66.70
2022-09-27T17:12:17.672Z,147.00
2022-09-27T17:14:47.961Z,121.50
2022-09-27T17:17:17.916Z,58.40
2022-09-27T17:19:48.467Z,55.00
2022-09-27T17:22:19.595Z,45.10
2022-09-27T17:24:49.844Z,57.20
2022-09-27T17:27:23.963Z,59.50
2022-09-27T17:29:57.754Z,52.40
2022-09-27T17:32:27.649Z,53.00
2022-09-27T17:34:58.377Z,53.50
2022-09-27T17:37:29.077Z,50.20
2022-09-27T17:39:59.731Z,69.80
2022-09-27T17:42:29.806Z,55.80
2022-09-27T17:45:00.183Z,57.30
2022-09-27T17:47:48.803Z,62.30
2022-09-27T17:50:27.461Z,57.80
2022-09-27T17:52:58.764Z,55.20
2022-09-27T17:55:29.705Z,71.40
2022-09-27T17:58:02.266Z,103.80
2022-09-27T18:00:33.037Z,106.60
2022-09-27T18:03:03.070Z,109.40
2022-09-27T18:05:33.170Z,110.20
2022-09-27T18:08:04.151Z,90.90
2022-09-27T18:10:35.176Z,80.30
2022-09-27T18:13:06.821Z,86.60
2022-09-27T18:15:38.713Z,72.00
2022-09-27T18:18:09.251Z,73.50
2022-09-27T18:20:40.444Z,80.30
2022-09-27T18:23:12.644Z,72.80
2022-09-27T18:25:42.639Z,90.30
2022-09-27T18:28:14.330Z,88.80
2022-09-27T18:30:44.504Z,84.60
2022-09-27T18:33:14.239Z,100.90
2022-09-27T18:35:44.807Z,96.30
2022-09-27T18:38:14.958Z,91.60
2022-09-27T18:40:56.307Z,92.30
2022-09-27T18:43:28.514Z,79.90
2022-09-27T18:46:24.014Z,82.00
2022-09-27T18:48:54.392Z,77.80
2022-09-27T18:51:31.908Z,78.20
2022-09-27T18:54:08.841Z,79.90
2022-09-27T18:56:44.136Z,73.40
2022-09-27T18:59:16.936Z,69.90
2022-09-27T19:01:54.978Z,61.40
2022-09-27T19:04:26.326Z,75.10
2022-09-27T19:06:57.613Z,75.10
2022-09-27T19:09:29.337Z,67.40
2022-09-27T19:11:58.943Z,64.30
2022-09-27T19:14:28.839Z,70.70
2022-09-27T19:16:59.612Z,64.40
2022-09-27T19:19:28.546Z,60.70
2022-09-27T19:21:59.654Z,57.60
2022-09-27T19:24:35.450Z,59.20
2022-09-27T19:27:05.633Z,55.80
2022-09-27T19:29:37.725Z,56.90
2022-09-27T19:32:07.921Z,54.50
2022-09-27T19:34:39.108Z,52.20
2022-09-27T19:37:09.784Z,49.60
2022-09-27T19:39:40.872Z,49.30
2022-09-27T19:42:10.656Z,48.10
2022-09-27T19:44:39.368Z,42.70
2022-09-27T19:47:09.460Z,45.50
2022-09-27T19:49:41.031Z,45.00
2022-09-27T19:52:11.425Z,42.80
2022-09-27T19:54:40.829Z,44.90
2022-09-27T19:57:13.205Z,36.30
2022-09-27T19:59:44.495Z,38.40
2022-09-27T20:02:13.655Z,39.50
2022-09-27T20:04:44.000Z,42.00
2022-09-27T20:07:17.540Z,41.50
2022-09-27T20:09:47.261Z,37.80
2022-09-27T20:12:17.128Z,40.00
2022-09-27T20:14:47.076Z,36.40
2022-09-27T20:17:19.134Z,37.90
2022-09-27T20:19:48.791Z,37.90
2022-09-27T20:22:17.329Z,37.00
2022-09-27T20:24:49.204Z,39.50
2022-09-27T20:27:20.141Z,38.50
2022-09-27T20:29:49.025Z,34.90
2022-09-27T20:32:27.672Z,38.80
2022-09-27T20:35:01.454Z,37.20
2022-09-27T20:37:30.902Z,34.70
2022-09-27T20:40:02.172Z,32.90
2022-09-27T20:42:32.598Z,35.90
2022-09-27T20:45:03.096Z,33.10
2022-09-27T20:47:33.284Z,35.50
2022-09-27T20:50:03.807Z,31.10
2022-09-27T20:52:34.348Z,29.90
2022-09-27T20:55:07.874Z,32.60
2022-09-27T20:57:56.466Z,34.80
2022-09-27T21:00:27.104Z,31.40
2022-09-27T21:02:58.852Z,35.30
2022-09-27T21:05:28.050Z,32.80
2022-09-27T21:07:59.057Z,33.00
2022-09-27T21:10:28.454Z,35.40
2022-09-27T21:12:59.980Z,35.10
2022-09-27T21:15:33.124Z,35.10
2022-09-27T21:18:03.177Z,41.40
2022-09-27T21:20:32.146Z,45.20
2022-09-27T21:23:01.385Z,48.90
2022-09-27T21:25:32.245Z,44.50
2022-09-27T21:28:03.790Z,41.50
2022-09-27T21:30:33.488Z,37.00
2022-09-27T21:33:06.881Z,39.00
2022-09-27T21:35:36.343Z,37.60
2022-09-27T21:38:05.379Z,34.60
2022-09-27T21:40:36.152Z,33.00
2022-09-27T21:43:07.336Z,33.40
2022-09-27T21:45:37.819Z,41.50
2022-09-27T21:48:07.672Z,36.00
2022-09-27T21:50:37.211Z,40.60
2022-09-27T21:53:07.949Z,38.60
2022-09-27T21:55:38.312Z,39.50
2022-09-27T21:58:08.666Z,41.70
2022-09-27T22:00:37.263Z,40.90
2022-09-27T22:03:08.181Z,42.70
2022-09-27T22:05:36.605Z,44.40
2022-09-27T22:08:06.507Z,52.90
2022-09-27T22:10:36.604Z,43.60
2022-09-27T22:13:05.991Z,46.00
2022-09-27T22:15:36.841Z,39.80
2022-09-27T22:18:08.608Z,38.00
2022-09-27T22:20:37.510Z,35.30
2022-09-27T22:23:06.325Z,36.80
2022-09-27T22:25:34.774Z,36.00
2022-09-27T22:28:04.236Z,40.00
2022-09-27T22:30:36.463Z,35.20
2022-09-27T22:33:06.791Z,36.00
2022-09-27T22:35:37.834Z,37.70
2022-09-27T22:38:09.302Z,35.30
2022-09-27T22:40:39.145Z,36.20
2022-09-27T22:43:08.472Z,35.40
2022-09-27T22:45:39.555Z,35.40
2022-09-27T22:48:11.387Z,33.60
2022-09-27T22:50:39.899Z,30.30
2022-09-27T22:53:09.164Z,32.50
2022-09-27T22:55:40.638Z,33.60
2022-09-27T22:58:11.090Z,33.60
2022-09-27T23:00:41.645Z,31.60
2022-09-27T23:03:10.984Z,28.80
2022-09-27T23:05:40.886Z,28.50
2022-09-27T23:08:09.526Z,27.20
2022-09-27T23:10:38.555Z,27.80
2022-09-27T23:13:08.098Z,32.40
2022-09-27T23:15:37.066Z,28.80
2022-09-27T23:18:06.817Z,28.50
2022-09-27T23:20:35.498Z,27.10
2022-09-27T23:23:06.079Z,27.70
2022-09-27T23:25:37.063Z,29.30
2022-09-27T23:28:06.117Z,24.50
2022-09-27T23:30:34.986Z,24.10
2022-09-27T23:33:03.414Z,24.50
2022-09-27T23:35:33.759Z,23.80
2022-09-27T23:38:02.731Z,26.40
2022-09-27T23:40:32.806Z,28.20
2022-09-27T23:43:01.513Z,25.30
2022-09-27T23:45:33.095Z,27.50
2022-09-27T23:48:04.642Z,26.30
2022-09-27T23:50:33.302Z,24.50
2022-09-27T23:53:02.095Z,26.50
2022-09-27T23:55:35.212Z,24.80
2022-09-27T23:58:07.674Z,25.70
